sensor_id;sensor_type;location;lat;lon;timestamp;temperature;humidity
43862;DHT22;29510;52.140;5.034;2024-02-15T00:03:53;12.40;99.90
43862;DHT22;29510;52.140;5.034;2024-02-15T00:13:54;12.50;99.90
43862;DHT22;29510;52.140;5.034;2024-02-15T00:23:56;12.50;99.90
43862;DHT22;29510;52.140;5.034;2024-02-15T00:33:59;12.50;99.90
43862;DHT22;29510;52.140;5.034;2024-02-15T00:44:02;12.50;99.90
43862;DHT22;29510;52.140;5.034;2024-02-15T00:54:04;12.50;99.90
43862;DHT22;29510;52.140;5.034;2024-02-15T01:04:05;12.50;99.90
43862;DHT22;29510;52.140;5.034;2024-02-15T01:14:05;12.50;99.90
43862;DHT22;29510;52.140;5.034;2024-02-15T01:24:10;12.40;99.90
43862;DHT22;29510;52.140;5.034;2024-02-15T01:34:10;12.50;99.90
43862;DHT22;29510;52.140;5.034;2024-02-15T01:44:11;12.50;99.90
43862;DHT22;29510;52.140;5.034;2024-02-15T01:54:13;12.50;99.90
43862;DHT22;29510;52.140;5.034;2024-02-15T02:04:13;12.50;99.90
43862;DHT22;29510;52.140;5.034;2024-02-15T02:14:14;12.50;99.90
43862;DHT22;29510;52.140;5.034;2024-02-15T02:24:21;12.50;99.90
43862;DHT22;29510;52.140;5.034;2024-02-15T02:34:22;12.50;99.90
43862;DHT22;29510;52.140;5.034;2024-02-15T02:44:23;12.60;99.90
43862;DHT22;29510;52.140;5.034;2024-02-15T02:54:23;12.50;99.90
43862;DHT22;29510;52.140;5.034;2024-02-15T03:04:24;12.50;99.90
43862;DHT22;29510;52.140;5.034;2024-02-15T03:14:24;12.50;99.90
43862;DHT22;29510;52.140;5.034;2024-02-15T03:24:25;12.50;99.90
43862;DHT22;29510;52.140;5.034;2024-02-15T03:34:26;12.50;99.90
43862;DHT22;29510;52.140;5.034;2024-02-15T03:44:26;12.50;99.90
43862;DHT22;29510;52.140;5.034;2024-02-15T03:54:27;12.40;99.90
43862;DHT22;29510;52.140;5.034;2024-02-15T04:04:30;12.50;99.90
43862;DHT22;29510;52.140;5.034;2024-02-15T04:14:32;12.50;99.90
43862;DHT22;29510;52.140;5.034;2024-02-15T04:24:34;12.50;99.90
43862;DHT22;29510;52.140;5.034;2024-02-15T04:34:39;12.50;99.90
43862;DHT22;29510;52.140;5.034;2024-02-15T04:44:40;12.40;99.90
43862;DHT22;29510;52.140;5.034;2024-02-15T04:54:41;12.40;99.90
43862;DHT22;29510;52.140;5.034;2024-02-15T05:04:41;12.40;99.90
43862;DHT22;29510;52.140;5.034;2024-02-15T05:14:43;12.30;99.90
43862;DHT22;29510;52.140;5.034;2024-02-15T05:24:43;12.40;99.90
43862;DHT22;29510;52.140;5.034;2024-02-15T05:34:44;12.30;99.90
43862;DHT22;29510;52.140;5.034;2024-02-15T05:44:45;12.30;99.90
43862;DHT22;29510;52.140;5.034;2024-02-15T05:54:46;12.30;99.90
43862;DHT22;29510;52.140;5.034;2024-02-15T06:04:47;12.30;99.90
43862;DHT22;29510;52.140;5.034;2024-02-15T06:14:47;12.30;99.90
43862;DHT22;29510;52.140;5.034;2024-02-15T06:24:48;12.30;99.90
43862;DHT22;29510;52.140;5.034;2024-02-15T06:34:48;12.30;99.90
43862;DHT22;29510;52.140;5.034;2024-02-15T06:45:08;12.40;99.90
43862;DHT22;29510;52.140;5.034;2024-02-15T06:55:09;12.30;99.90
43862;DHT22;29510;52.140;5.034;2024-02-15T07:05:12;12.40;99.90
43862;DHT22;29510;52.140;5.034;2024-02-15T07:15:13;12.20;99.90
43862;DHT22;29510;52.140;5.034;2024-02-15T07:25:13;12.30;99.90
43862;DHT22;29510;52.140;5.034;2024-02-15T07:35:14;12.30;99.90
43862;DHT22;29510;52.140;5.034;2024-02-15T07:45:17;12.10;99.90
43862;DHT22;29510;52.140;5.034;2024-02-15T07:55:18;12.10;99.90
43862;DHT22;29510;52.140;5.034;2024-02-15T08:05:19;12.10;99.90
43862;DHT22;29510;52.140;5.034;2024-02-15T08:15:21;12.20;99.90
43862;DHT22;29510;52.140;5.034;2024-02-15T08:25:21;12.10;99.90
43862;DHT22;29510;52.140;5.034;2024-02-15T08:35:22;12.30;99.90
43862;DHT22;29510;52.140;5.034;2024-02-15T08:45:24;12.30;99.90
43862;DHT22;29510;52.140;5.034;2024-02-15T08:55:25;12.30;99.90
43862;DHT22;29510;52.140;5.034;2024-02-15T09:05:27;12.40;99.90
43862;DHT22;29510;52.140;5.034;2024-02-15T09:15:28;12.40;99.90
43862;DHT22;29510;52.140;5.034;2024-02-15T09:25:31;12.40;99.90
43862;DHT22;29510;52.140;5.034;2024-02-15T09:35:32;12.40;99.90
43862;DHT22;29510;52.140;5.034;2024-02-15T09:45:32;12.50;99.90
43862;DHT22;29510;52.140;5.034;2024-02-15T09:55:35;12.50;99.90
43862;DHT22;29510;52.140;5.034;2024-02-15T10:05:36;12.50;99.90
43862;DHT22;29510;52.140;5.034;2024-02-15T10:15:40;12.60;99.90
43862;DHT22;29510;52.140;5.034;2024-02-15T10:25:45;12.70;99.90
43862;DHT22;29510;52.140;5.034;2024-02-15T10:35:46;12.80;99.90
43862;DHT22;29510;52.140;5.034;2024-02-15T10:45:47;12.90;99.90
43862;DHT22;29510;52.140;5.034;2024-02-15T10:56:15;12.80;99.90
43862;DHT22;29510;52.140;5.034;2024-02-15T11:06:20;13.00;99.90
43862;DHT22;29510;52.140;5.034;2024-02-15T11:16:41;13.10;99.90
43862;DHT22;29510;52.140;5.034;2024-02-15T11:26:46;13.20;99.90
43862;DHT22;29510;52.140;5.034;2024-02-15T11:36:49;13.30;99.90
43862;DHT22;29510;52.140;5.034;2024-02-15T11:46:52;13.50;99.90
43862;DHT22;29510;52.140;5.034;2024-02-15T11:56:56;13.70;99.90
43862;DHT22;29510;52.140;5.034;2024-02-15T12:07:14;13.80;99.90
43862;DHT22;29510;52.140;5.034;2024-02-15T12:17:34;14.00;99.90
43862;DHT22;29510;52.140;5.034;2024-02-15T12:27:55;14.10;99.90
43862;DHT22;29510;52.140;5.034;2024-02-15T12:48:04;14.80;99.90
43862;DHT22;29510;52.140;5.034;2024-02-15T12:58:14;15.10;99.90
43862;DHT22;29510;52.140;5.034;2024-02-15T13:08:17;15.30;99.90
43862;DHT22;29510;52.140;5.034;2024-02-15T13:18:18;15.30;99.90
43862;DHT22;29510;52.140;5.034;2024-02-15T13:28:19;15.90;99.90
43862;DHT22;29510;52.140;5.034;2024-02-15T13:38:20;15.80;85.00
43862;DHT22;29510;52.140;5.034;2024-02-15T13:48:23;16.20;70.60
43862;DHT22;29510;52.140;5.034;2024-02-15T13:58:25;16.60;36.60
43862;DHT22;29510;52.140;5.034;2024-02-15T14:08:25;16.70;17.40
43862;DHT22;29510;52.140;5.034;2024-02-15T14:18:26;16.40;10.00
43862;DHT22;29510;52.140;5.034;2024-02-15T14:28:28;16.00;12.10
43862;DHT22;29510;52.140;5.034;2024-02-15T14:38:29;15.90;9.70
43862;DHT22;29510;52.140;5.034;2024-02-15T14:48:29;16.20;2.00
43862;DHT22;29510;52.140;5.034;2024-02-15T14:58:31;16.10;1.00
43862;DHT22;29510;52.140;5.034;2024-02-15T15:08:32;15.90;1.00
43862;DHT22;29510;52.140;5.034;2024-02-15T15:18:51;16.00;1.00
43862;DHT22;29510;52.140;5.034;2024-02-15T15:28:55;15.70;5.00
43862;DHT22;29510;52.140;5.034;2024-02-15T15:38:56;15.60;9.00
43862;DHT22;29510;52.140;5.034;2024-02-15T15:48:58;15.50;6.00
43862;DHT22;29510;52.140;5.034;2024-02-15T15:58:58;15.50;4.70
43862;DHT22;29510;52.140;5.034;2024-02-15T16:08:59;15.30;2.00
43862;DHT22;29510;52.140;5.034;2024-02-15T16:19:00;15.40;1.00
43862;DHT22;29510;52.140;5.034;2024-02-15T16:29:02;15.20;6.40
43862;DHT22;29510;52.140;5.034;2024-02-15T16:39:03;15.00;11.40
43862;DHT22;29510;52.140;5.034;2024-02-15T16:49:04;14.80;19.50
43862;DHT22;29510;52.140;5.034;2024-02-15T16:59:06;14.70;23.20
43862;DHT22;29510;52.140;5.034;2024-02-15T17:09:07;14.70;21.40
43862;DHT22;29510;52.140;5.034;2024-02-15T17:19:08;14.50;27.10
43862;DHT22;29510;52.140;5.034;2024-02-15T17:29:09;14.50;27.70
43862;DHT22;29510;52.140;5.034;2024-02-15T17:39:11;14.30;39.50
43862;DHT22;29510;52.140;5.034;2024-02-15T17:49:14;14.20;50.70
43862;DHT22;29510;52.140;5.034;2024-02-15T17:59:15;14.00;51.80
43862;DHT22;29510;52.140;5.034;2024-02-15T18:09:15;13.90;60.30
43862;DHT22;29510;52.140;5.034;2024-02-15T18:19:16;13.80;76.20
43862;DHT22;29510;52.140;5.034;2024-02-15T18:29:20;13.70;88.10
43862;DHT22;29510;52.140;5.034;2024-02-15T18:39:20;13.60;78.10
43862;DHT22;29510;52.140;5.034;2024-02-15T18:49:21;13.70;61.80
43862;DHT22;29510;52.140;5.034;2024-02-15T18:59:23;13.70;49.60
43862;DHT22;29510;52.140;5.034;2024-02-15T19:09:23;13.80;36.00
43862;DHT22;29510;52.140;5.034;2024-02-15T19:19:24;13.80;32.40
43862;DHT22;29510;52.140;5.034;2024-02-15T19:29:26;13.90;18.80
43862;DHT22;29510;52.140;5.034;2024-02-15T19:39:27;14.00;12.20
43862;DHT22;29510;52.140;5.034;2024-02-15T19:49:28;14.20;2.50
43862;DHT22;29510;52.140;5.034;2024-02-15T19:59:29;14.30;1.00
43862;DHT22;29510;52.140;5.034;2024-02-15T20:09:30;14.30;1.00
43862;DHT22;29510;52.140;5.034;2024-02-15T20:19:32;14.20;1.00
43862;DHT22;29510;52.140;5.034;2024-02-15T20:29:32;14.10;1.00
43862;DHT22;29510;52.140;5.034;2024-02-15T20:39:34;14.20;1.00
43862;DHT22;29510;52.140;5.034;2024-02-15T20:49:35;14.20;1.00
43862;DHT22;29510;52.140;5.034;2024-02-15T20:59:36;14.20;1.00
43862;DHT22;29510;52.140;5.034;2024-02-15T21:09:40;14.20;1.00
43862;DHT22;29510;52.140;5.034;2024-02-15T21:19:40;14.20;1.00
43862;DHT22;29510;52.140;5.034;2024-02-15T21:29:42;14.20;1.00
43862;DHT22;29510;52.140;5.034;2024-02-15T21:39:46;14.10;1.00
43862;DHT22;29510;52.140;5.034;2024-02-15T21:49:46;14.10;1.00
43862;DHT22;29510;52.140;5.034;2024-02-15T21:59:48;14.20;1.00
43862;DHT22;29510;52.140;5.034;2024-02-15T22:09:48;14.10;1.00
43862;DHT22;29510;52.140;5.034;2024-02-15T22:19:51;14.00;1.00
43862;DHT22;29510;52.140;5.034;2024-02-15T22:29:51;14.00;1.00
43862;DHT22;29510;52.140;5.034;2024-02-15T22:39:52;13.80;1.00
43862;DHT22;29510;52.140;5.034;2024-02-15T22:49:53;13.80;1.00
43862;DHT22;29510;52.140;5.034;2024-02-15T22:59:54;13.70;1.00
43862;DHT22;29510;52.140;5.034;2024-02-15T23:09:54;13.50;1.00
43862;DHT22;29510;52.140;5.034;2024-02-15T23:19:55;13.40;1.00
43862;DHT22;29510;52.140;5.034;2024-02-15T23:29:57;13.30;1.00
43862;DHT22;29510;52.140;5.034;2024-02-15T23:39:57;13.30;1.00
43862;DHT22;29510;52.140;5.034;2024-02-15T23:50:17;13.10;1.00
